Time;durP1;ratioP1;P1;durP2;ratioP2;P2;SDS_P1;SDS_P2;PMS_P1;PMS_P2;Temp;Humidity;BMP_temperature;BMP_pressure;BME280_temperature;BME280_humidity;BME280_pressure;Samples;Min_cycle;Max_cycle;Signal;HPM_P1;HPM_P2
2022/05/09 00:02:00;;;;;;;6.57;6.17;;;;;;;12.00;100.00;97254.19;5032817;28;20547;-75
2022/05/09 00:04:27;;;;;;;6.80;6.20;;;;;;;11.95;100.00;97243.75;5033099;28;20527;-75
2022/05/09 00:06:55;;;;;;;6.53;6.03;;;;;;;11.92;100.00;97217.09;5032892;28;20445;-75
2022/05/09 00:09:23;;;;;;;5.90;5.40;;;;;;;12.00;100.00;97221.59;5033188;28;20535;-75
2022/05/09 00:11:50;;;;;;;10.83;6.43;;;;;;;11.72;100.00;97208.63;5035917;28;20468;-75
2022/05/09 00:14:16;;;;;;;7.00;6.37;;;;;;;11.75;100.00;97213.31;5032806;28;20440;-75
2022/05/09 00:16:43;;;;;;;6.33;5.83;;;;;;;11.92;100.00;97243.59;5032838;28;20471;-75
2022/05/09 00:19:13;;;;;;;6.60;6.00;;;;;;;11.96;100.00;97245.31;5023360;28;20447;-75
2022/05/09 00:21:41;;;;;;;6.83;6.23;;;;;;;11.95;100.00;97241.09;5032581;28;20452;-75
2022/05/09 00:24:12;;;;;;;6.87;6.17;;;;;;;11.96;100.00;97239.22;5049218;28;20527;-75
2022/05/09 00:26:45;;;;;;;6.43;5.93;;;;;;;11.90;100.00;97245.78;5050651;28;20424;-75
2022/05/09 00:29:14;;;;;;;6.63;6.13;;;;;;;11.82;100.00;97237.50;5032698;28;20524;-75
2022/05/09 00:31:45;;;;;;;8.20;6.13;;;;;;;11.85;100.00;97241.41;5032676;28;20507;-75
2022/05/09 00:34:17;;;;;;;6.93;6.33;;;;;;;11.80;100.00;97231.75;5050525;28;20424;-75
2022/05/09 00:36:45;;;;;;;6.27;5.70;;;;;;;11.66;100.00;97220.47;5032433;28;20537;-75
2022/05/09 00:39:13;;;;;;;6.30;5.70;;;;;;;11.33;100.00;97241.28;5032691;28;20475;-75
2022/05/09 00:41:42;;;;;;;5.97;5.40;;;;;;;11.11;100.00;97246.69;5050355;28;20886;-75
2022/05/09 00:44:12;;;;;;;6.30;5.80;;;;;;;11.06;100.00;97234.34;5032264;28;20537;-75
2022/05/09 00:46:44;;;;;;;6.60;6.00;;;;;;;11.24;100.00;97245.81;5035983;28;20464;-75
2022/05/09 00:49:47;;;;;;;5.63;5.13;;;;;;;11.09;100.00;97225.84;5036621;28;20913;-75
2022/05/09 00:52:29;;;;;;;6.70;6.20;;;;;;;11.08;100.00;97244.63;5036205;28;20444;-75
2022/05/09 00:55:02;;;;;;;6.53;6.00;;;;;;;11.22;100.00;97240.03;5036128;28;20524;-74
2022/05/09 00:57:53;;;;;;;5.33;4.83;;;;;;;11.02;100.00;97224.69;5035951;28;20468;-75
2022/05/09 01:00:22;;;;;;;6.60;6.10;;;;;;;11.16;100.00;97239.38;5035876;28;20461;-75
2022/05/09 01:03:04;;;;;;;6.70;6.10;;;;;;;11.05;100.00;97234.66;5036018;28;20450;-75
2022/05/09 01:05:32;;;;;;;6.00;5.40;;;;;;;10.78;100.00;97238.28;5054102;28;20420;-75
2022/05/09 01:07:59;;;;;;;6.47;5.90;;;;;;;10.61;100.00;97221.25;5036065;28;20441;-75
2022/05/09 01:10:31;;;;;;;5.10;4.70;;;;;;;10.85;100.00;97241.31;5053687;28;20506;-75
2022/05/09 01:13:05;;;;;;;6.50;5.70;;;;;;;10.65;100.00;97218.78;5054136;28;20474;-75
2022/05/09 01:15:32;;;;;;;6.80;6.17;;;;;;;10.88;100.00;97241.47;5035668;28;20523;-75
2022/05/09 01:18:01;;;;;;;6.70;6.20;;;;;;;10.87;100.00;97241.78;5026534;28;20448;-75
2022/05/09 01:20:28;;;;;;;6.43;5.93;;;;;;;10.47;100.00;97178.28;5035953;28;20958;-75
2022/05/09 01:22:58;;;;;;;6.10;5.20;;;;;;;10.89;100.00;97239.59;5035895;28;20528;-75
2022/05/09 01:25:27;;;;;;;7.23;6.10;;;;;;;10.64;100.00;97201.34;5035706;28;20855;-75
2022/05/09 01:27:56;;;;;;;5.87;5.27;;;;;;;10.76;100.00;97211.38;5035966;28;20428;-75
2022/05/09 01:30:44;;;;;;;6.33;5.77;;;;;;;10.82;100.00;97240.06;5035682;28;20463;-75
2022/05/09 01:33:17;;;;;;;5.90;5.40;;;;;;;10.61;100.00;97231.06;5035556;28;20853;-75
2022/05/09 01:35:51;;;;;;;8.10;6.17;;;;;;;10.39;100.00;97236.38;5053537;28;20495;-75
2022/05/09 01:38:52;;;;;;;7.03;5.83;;;;;;;10.31;100.00;97229.97;5035426;28;20470;-75
2022/05/09 01:41:18;;;;;;;5.87;5.40;;;;;;;10.22;100.00;97206.13;5035422;28;20461;-75
2022/05/09 01:43:48;;;;;;;6.20;5.70;;;;;;;10.40;100.00;97240.56;5035226;28;20528;-75
2022/05/09 01:46:18;;;;;;;9.43;6.70;;;;;;;10.49;100.00;97239.56;5053365;28;20485;-75
2022/05/09 01:51:31;;;;;;;5.70;5.20;;;;;;;9.91;100.00;97189.41;5042099;28;20852;-75
2022/05/09 01:53:58;;;;;;;6.60;5.73;;;;;;;9.82;100.00;97197.25;5035014;28;20934;-75
2022/05/09 01:56:28;;;;;;;6.53;5.90;;;;;;;9.99;100.00;97210.59;5034702;28;20509;-75
2022/05/09 01:58:56;;;;;;;6.67;6.07;;;;;;;9.83;100.00;97188.25;5034788;28;20467;-75
2022/05/09 02:01:26;;;;;;;7.53;5.90;;;;;;;10.09;100.00;97228.06;5052835;28;20452;-75
2022/05/09 02:03:53;;;;;;;8.30;6.50;;;;;;;10.15;100.00;97231.38;5034815;28;20455;-75
2022/05/09 02:06:20;;;;;;;6.70;6.20;;;;;;;9.95;100.00;97212.28;5034961;28;20835;-75
2022/05/09 02:08:48;;;;;;;6.87;6.00;;;;;;;9.98;100.00;97232.03;5052672;28;20493;-75
2022/05/09 02:11:15;;;;;;;6.83;6.00;;;;;;;9.83;100.00;97241.06;5052762;28;20982;-74
2022/05/09 02:13:42;;;;;;;6.20;5.60;;;;;;;9.84;100.00;97231.28;5034573;28;20535;-75
2022/05/09 02:16:09;;;;;;;6.63;6.03;;;;;;;9.77;100.00;97231.72;5034622;28;20471;-74
2022/05/09 02:18:36;;;;;;;7.47;6.87;;;;;;;9.85;100.00;97230.22;5043445;28;20778;-74
2022/05/09 02:21:03;;;;;;;6.97;6.37;;;;;;;9.91;100.00;97221.09;5034398;28;20457;-74
2022/05/09 02:23:31;;;;;;;7.00;6.40;;;;;;;9.75;100.00;97210.13;5035260;28;20449;-75
2022/05/09 02:25:57;;;;;;;8.90;5.93;;;;;;;9.85;100.00;97217.00;5034622;28;20468;-74
2022/05/09 02:28:25;;;;;;;6.97;6.37;;;;;;;9.75;100.00;97195.06;5048168;28;20439;-75
2022/05/09 02:30:52;;;;;;;7.13;6.53;;;;;;;9.48;100.00;97184.53;5034528;28;20464;-74
2022/05/09 02:33:19;;;;;;;6.27;5.70;;;;;;;9.84;100.00;97236.56;5039226;28;20428;-74
2022/05/09 02:35:46;;;;;;;7.03;6.33;;;;;;;9.33;100.00;97184.88;5034356;28;20514;-74
2022/05/09 02:38:14;;;;;;;7.23;6.57;;;;;;;9.40;100.00;97209.03;5052352;28;20474;-74
2022/05/09 02:40:40;;;;;;;7.10;6.40;;;;;;;9.67;100.00;97226.66;5034603;28;20439;-74
2022/05/09 02:43:07;;;;;;;6.53;5.97;;;;;;;9.70;100.00;97223.41;5052151;28;20438;-74
2022/05/09 02:45:34;;;;;;;7.60;6.80;;;;;;;9.51;100.00;97217.50;5017818;28;20440;-73
2022/05/09 02:48:02;;;;;;;8.53;6.70;;;;;;;9.54;100.00;97233.53;5034157;28;20490;-74
2022/05/09 02:50:28;;;;;;;8.30;6.63;;;;;;;9.13;100.00;97191.38;5034023;28;20495;-75
2022/05/09 02:52:56;;;;;;;7.73;7.03;;;;;;;9.22;100.00;97217.84;5034096;28;20519;-74
2022/05/09 02:55:23;;;;;;;6.83;6.17;;;;;;;8.97;100.00;97195.38;5052195;28;20443;-76
2022/05/09 02:57:50;;;;;;;6.97;6.40;;;;;;;9.10;100.00;97231.53;5034059;28;20511;-74
2022/05/09 03:00:23;;;;;;;6.97;6.47;;;;;;;8.96;100.00;97207.00;5022081;28;20478;-74
2022/05/09 03:05:40;;;;;;;7.47;6.87;;;;;;;9.02;100.00;97242.75;5037335;28;20519;-74
2022/05/09 03:08:09;;;;;;;6.73;6.20;;;;;;;9.11;100.00;97233.09;5040437;28;20468;-74
2022/05/09 03:10:37;;;;;;;6.70;6.17;;;;;;;8.93;100.00;97197.81;5051919;28;20451;-77
2022/05/09 03:13:06;;;;;;;10.13;6.67;;;;;;;8.75;100.00;97199.47;5035038;28;20441;-77
2022/05/09 03:15:36;;;;;;;7.73;7.03;;;;;;;9.06;100.00;97239.22;5034919;28;20451;-77
2022/05/09 03:18:04;;;;;;;8.70;7.13;;;;;;;9.14;100.00;97230.66;5033888;28;20623;-77
2022/05/09 03:20:31;;;;;;;7.60;6.80;;;;;;;8.77;100.00;97199.19;5051964;28;20839;-77
2022/05/09 03:22:57;;;;;;;8.90;6.00;;;;;;;9.08;100.00;97233.66;5033935;28;20467;-77
2022/05/09 03:25:24;;;;;;;7.73;7.03;;;;;;;9.17;100.00;97234.53;5053416;28;20776;-77
2022/05/09 03:27:51;;;;;;;7.17;6.47;;;;;;;9.23;100.00;97241.31;5052616;28;20424;-77
2022/05/09 03:30:19;;;;;;;7.20;6.63;;;;;;;9.22;100.00;97238.97;5035221;28;20475;-77
2022/05/09 03:32:47;;;;;;;6.70;6.10;;;;;;;8.52;100.00;97198.56;5035522;28;20461;-77
2022/05/09 03:35:17;;;;;;;8.47;6.50;;;;;;;8.79;100.00;97234.72;5033774;28;20451;-77
2022/05/09 03:37:44;;;;;;;7.73;7.13;;;;;;;8.45;100.00;97221.91;5033463;28;20606;-77
2022/05/09 03:40:11;;;;;;;7.90;7.30;;;;;;;8.60;100.00;97234.03;5051687;28;20479;-77
2022/05/09 03:42:38;;;;;;;7.73;7.13;;;;;;;8.63;100.00;97233.44;5035025;28;20444;-77
2022/05/09 03:45:07;;;;;;;8.23;7.53;;;;;;;8.70;100.00;97240.97;5033735;28;20436;-77
2022/05/09 03:47:33;;;;;;;7.10;6.60;;;;;;;8.74;100.00;97239.31;5033713;28;20450;-77
2022/05/09 03:50:00;;;;;;;8.07;7.37;;;;;;;8.56;100.00;97202.22;5034704;28;20453;-77
2022/05/09 03:52:27;;;;;;;9.00;8.30;;;;;;;8.52;100.00;97201.19;5005966;28;20491;-77
2022/05/09 03:54:55;;;;;;;7.73;7.20;;;;;;;8.84;100.00;97234.66;5035681;28;20481;-77
2022/05/09 03:57:23;;;;;;;7.07;6.47;;;;;;;8.68;100.00;97220.19;5033742;28;20470;-77
2022/05/09 03:59:50;;;;;;;7.57;6.93;;;;;;;8.56;100.00;97239.09;5035804;28;20436;-77
2022/05/09 04:02:19;;;;;;;7.63;7.03;;;;;;;8.51;100.00;97219.94;5052266;28;20427;-77
2022/05/09 04:04:46;;;;;;;6.97;6.33;;;;;;;8.78;100.00;97225.25;5033453;28;20435;-77
2022/05/09 04:07:12;;;;;;;7.00;6.40;;;;;;;8.74;100.00;97237.47;5034732;28;20440;-77
2022/05/09 04:09:39;;;;;;;8.23;7.00;;;;;;;8.68;100.00;97235.19;5033300;28;20455;-77
2022/05/09 04:12:06;;;;;;;8.57;7.43;;;;;;;8.57;100.00;97201.13;5051342;28;20505;-77
2022/05/09 04:17:20;;;;;;;8.47;7.80;;;;;;;8.67;100.00;97223.09;5036345;28;20652;-77
2022/05/09 04:19:47;;;;;;;9.20;8.50;;;;;;;8.69;100.00;97215.69;5028931;28;20463;-77
2022/05/09 04:22:14;;;;;;;8.47;7.53;;;;;;;8.91;100.00;97242.16;5036703;28;20501;-76
2022/05/09 04:24:43;;;;;;;9.10;8.50;;;;;;;8.97;100.00;97256.84;5036935;28;20878;-76
2022/05/09 04:27:10;;;;;;;8.87;8.10;;;;;;;8.86;100.00;97258.09;5054698;28;20423;-76
2022/05/09 04:29:36;;;;;;;13.23;7.77;;;;;;;8.60;100.00;97231.41;5053378;28;20477;-76
2022/05/09 04:32:04;;;;;;;8.23;7.50;;;;;;;8.72;100.00;97260.72;5037250;28;20492;-76
2022/05/09 04:34:31;;;;;;;9.47;8.50;;;;;;;8.62;100.00;97229.25;5054695;28;20446;-76
2022/05/09 04:36:58;;;;;;;7.67;7.00;;;;;;;8.79;100.00;97233.94;5036628;28;20470;-76
2022/05/09 04:39:25;;;;;;;8.63;6.50;;;;;;;8.99;100.00;97256.53;5020023;28;20436;-76
2022/05/09 04:41:54;;;;;;;8.70;7.40;;;;;;;9.16;100.00;97254.09;5037207;28;20505;-76
2022/05/09 04:44:22;;;;;;;8.20;7.37;;;;;;;9.23;100.00;97257.13;5054509;28;20799;-76
2022/05/09 04:46:49;;;;;;;8.83;8.00;;;;;;;9.38;100.00;97262.09;5036590;28;20523;-76
2022/05/09 04:49:16;;;;;;;8.43;7.73;;;;;;;9.34;100.00;97255.06;5036263;28;20436;-76
2022/05/09 04:51:43;;;;;;;8.00;7.20;;;;;;;9.52;100.00;97262.09;5036174;28;20463;-76
2022/05/09 04:54:10;;;;;;;7.80;6.80;;;;;;;9.30;100.00;97222.41;5038732;28;20513;-76
2022/05/09 04:56:36;;;;;;;7.80;7.00;;;;;;;9.43;100.00;97229.53;5036431;28;20881;-76
2022/05/09 04:59:03;;;;;;;7.70;7.00;;;;;;;9.73;100.00;97273.00;5039525;28;20432;-80
2022/05/09 05:01:30;;;;;;;10.10;8.20;;;;;;;9.73;100.00;97259.78;5040332;28;20448;-79
2022/05/09 05:03:57;;;;;;;9.17;8.37;;;;;;;9.95;100.00;97282.81;5056189;28;20486;-79
2022/05/09 05:06:24;;;;;;;11.40;8.87;;;;;;;9.68;100.00;97228.22;5054581;28;20538;-79
2022/05/09 05:08:51;;;;;;;8.60;7.90;;;;;;;9.97;100.00;97256.88;5007303;28;20462;-79
2022/05/09 05:11:18;;;;;;;9.73;8.80;;;;;;;9.93;100.00;97282.34;5036732;28;20546;-79
2022/05/09 05:13:44;;;;;;;8.47;7.53;;;;;;;9.90;100.00;97219.56;5037205;28;20978;-79
2022/05/09 05:16:11;;;;;;;8.80;7.90;;;;;;;10.73;100.00;97278.13;5039619;28;20440;-79
2022/05/09 05:18:38;;;;;;;8.27;7.57;;;;;;;10.36;100.00;97250.97;5027549;28;20824;-76
2022/05/09 05:21:10;;;;;;;9.87;8.87;;;;;;;11.03;100.00;97279.19;5035986;28;20605;-76
2022/05/09 05:23:38;;;;;;;8.23;7.53;;;;;;;10.65;100.00;97232.00;5033162;28;20544;-76
2022/05/09 05:26:05;;;;;;;8.53;7.80;;;;;;;11.01;100.00;97266.25;5046440;28;20828;-77
2022/05/09 05:28:32;;;;;;;8.83;8.13;;;;;;;11.07;100.00;97282.78;5019794;28;20532;-77
2022/05/09 05:31:21;;;;;;;7.63;7.03;;;;;;;11.20;100.00;97292.47;5035685;28;20824;-77
2022/05/09 05:33:49;;;;;;;10.20;7.33;;;;;;;11.30;100.00;97296.72;5054463;28;20417;-77
2022/05/09 05:36:18;;;;;;;8.20;7.40;;;;;;;11.09;100.00;97259.47;5035262;28;20815;-77
2022/05/09 05:38:51;;;;;;;9.77;7.97;;;;;;;10.88;100.00;97235.38;5035396;28;20559;-77
2022/05/09 05:41:19;;;;;;;8.57;7.87;;;;;;;11.24;100.00;97251.88;5035825;28;20567;-77
2022/05/09 05:43:46;;;;;;;8.73;7.83;;;;;;;11.38;100.00;97298.63;5043246;28;20542;-77
2022/05/09 05:46:13;;;;;;;8.63;7.70;;;;;;;11.74;100.00;97285.94;5035374;28;20447;-77
2022/05/09 05:48:41;;;;;;;7.50;6.80;;;;;;;11.75;100.00;97271.63;5042848;28;20440;-77
2022/05/09 05:51:08;;;;;;;8.80;7.20;;;;;;;12.19;100.00;97304.25;5034496;28;20564;-77
2022/05/09 05:53:35;;;;;;;7.90;7.17;;;;;;;12.20;100.00;97252.00;5035117;28;20505;-77
2022/05/09 05:56:02;;;;;;;8.10;7.17;;;;;;;12.47;100.00;97264.91;5035036;28;20450;-77
2022/05/09 05:58:28;;;;;;;6.80;6.30;;;;;;;12.70;100.00;97297.34;5035344;28;20470;-77
2022/05/09 06:00:56;;;;;;;7.20;6.60;;;;;;;13.09;100.00;97308.78;5052921;28;20459;-77
2022/05/09 06:03:22;;;;;;;8.23;7.10;;;;;;;13.02;100.00;97267.56;5036786;28;20454;-77
2022/05/09 06:05:49;;;;;;;8.07;7.37;;;;;;;13.24;100.00;97271.91;5054623;28;20527;-77
2022/05/09 06:08:16;;;;;;;10.10;7.77;;;;;;;13.60;100.00;97305.16;5036426;28;20871;-78
2022/05/09 06:10:43;;;;;;;8.47;7.27;;;;;;;13.11;100.00;97203.81;5038564;28;20902;-76
2022/05/09 06:13:14;;;;;;;7.33;6.73;;;;;;;14.04;100.00;97318.97;5042451;28;20424;-77
2022/05/09 06:15:42;;;;;;;7.37;6.70;;;;;;;14.09;100.00;97316.88;5034995;28;20467;-77
2022/05/09 06:18:12;;;;;;;8.30;7.50;;;;;;;14.36;100.00;97325.44;5035565;28;20911;-77
2022/05/09 06:20:43;;;;;;;8.60;7.03;;;;;;;14.69;100.00;97322.81;5036969;28;20872;-77
2022/05/09 06:23:12;;;;;;;8.00;6.57;;;;;;;14.67;100.00;97307.19;5040885;28;20421;-77
2022/05/09 06:25:40;;;;;;;8.73;6.60;;;;;;;14.69;100.00;97320.97;5020222;28;20437;-74
2022/05/09 06:28:07;;;;;;;6.33;5.80;;;;;;;15.23;100.00;97328.84;5051256;28;20421;-74
2022/05/09 06:30:34;;;;;;;8.93;7.00;;;;;;;15.43;100.00;97332.53;5034835;28;20499;-74
2022/05/09 06:33:01;;;;;;;6.30;5.70;;;;;;;15.02;100.00;97298.84;5038047;28;20438;-74
2022/05/09 06:35:29;;;;;;;5.90;5.40;;;;;;;15.26;100.00;97338.06;5015078;28;20501;-74
2022/05/09 06:38:02;;;;;;;6.67;6.00;;;;;;;15.55;100.00;97342.41;5031429;28;20464;-74
2022/05/09 06:40:31;;;;;;;7.03;5.90;;;;;;;15.78;100.00;97316.13;5034415;28;20551;-74
2022/05/09 06:42:58;;;;;;;6.07;5.30;;;;;;;15.57;100.00;97308.19;5033388;28;20960;-74
2022/05/09 06:45:30;;;;;;;4.63;4.23;;;;;;;15.70;100.00;97309.00;5034161;28;20455;-74
2022/05/09 06:47:57;;;;;;;8.33;6.03;;;;;;;15.87;100.00;97306.84;5034135;28;20451;-74
2022/05/09 06:50:27;;;;;;;6.07;5.63;;;;;;;15.89;100.00;97347.34;5034044;28;20461;-74
2022/05/09 06:52:56;;;;;;;5.73;5.03;;;;;;;15.90;100.00;97354.22;5034172;28;20440;-74
2022/05/09 06:55:41;;;;;;;6.67;4.80;;;;;;;15.54;100.00;97317.66;5033936;28;20449;-74
2022/05/09 06:58:16;;;;;;;7.57;5.00;;;;;;;16.16;100.00;97345.84;5033826;28;20554;-74
2022/05/09 07:00:44;;;;;;;5.27;4.80;;;;;;;16.48;100.00;97356.66;5033850;28;20547;-74
2022/05/09 07:03:12;;;;;;;6.43;5.93;;;;;;;16.07;100.00;97304.38;5051857;28;20983;-74
2022/05/09 07:05:43;;;;;;;5.30;4.83;;;;;;;16.82;100.00;97347.28;5033774;28;20451;-74
2022/05/09 07:08:11;;;;;;;6.67;5.63;;;;;;;16.45;100.00;97303.94;5051848;28;20520;-74
2022/05/09 07:10:38;;;;;;;6.53;5.83;;;;;;;15.93;100.00;97294.84;5051575;28;20547;-74
2022/05/09 07:13:05;;;;;;;5.33;4.77;;;;;;;16.71;100.00;97354.28;5051578;28;20432;-74
2022/05/09 07:15:35;;;;;;;5.47;4.97;;;;;;;16.50;100.00;97333.81;5033513;28;20487;-74
2022/05/09 07:18:03;;;;;;;8.90;5.70;;;;;;;16.94;100.00;97339.22;5033611;28;21069;-74
2022/05/09 07:20:32;;;;;;;5.40;4.90;;;;;;;17.09;100.00;97356.41;5033525;28;20471;-74
2022/05/09 07:23:06;;;;;;;5.77;5.27;;;;;;;17.32;100.00;97357.38;5033894;28;20472;-74
2022/05/09 07:25:32;;;;;;;8.50;5.20;;;;;;;17.71;100.00;97346.88;5033758;28;20522;-74
2022/05/09 07:27:59;;;;;;;8.67;5.20;;;;;;;17.45;100.00;97339.34;5050246;28;20413;-74
2022/05/09 07:30:28;;;;;;;7.63;5.20;;;;;;;17.18;100.00;97318.81;5033786;28;20502;-74
2022/05/09 07:32:55;;;;;;;6.53;5.23;;;;;;;17.57;100.00;97349.94;5033678;28;20429;-74
2022/05/09 07:35:23;;;;;;;8.17;5.73;;;;;;;17.23;100.00;97332.72;5051506;28;20834;-74
2022/05/09 07:37:50;;;;;;;8.33;5.60;;;;;;;17.34;100.00;97340.97;5033593;28;20870;-74
2022/05/09 07:40:19;;;;;;;6.10;5.50;;;;;;;17.26;100.00;97337.38;5013739;28;20499;-74
2022/05/09 07:42:47;;;;;;;7.80;6.43;;;;;;;17.71;100.00;97358.34;5049073;28;20426;-74
2022/05/09 07:45:16;;;;;;;8.20;5.10;;;;;;;17.32;100.00;97332.53;5033075;28;20447;-74
2022/05/09 07:47:43;;;;;;;5.50;5.00;;;;;;;17.68;100.00;97329.63;5033319;28;20460;-74
2022/05/09 07:50:11;;;;;;;5.63;5.10;;;;;;;18.04;98.41;97348.38;5033057;28;20489;-74
2022/05/09 07:52:42;;;;;;;6.90;4.60;;;;;;;18.13;97.73;97359.66;5033012;28;20437;-74
2022/05/09 07:55:15;;;;;;;5.10;4.67;;;;;;;18.24;95.95;97358.75;5032865;28;20426;-74
2022/05/09 07:57:42;;;;;;;6.80;5.10;;;;;;;17.39;99.00;97324.69;5049841;28;20476;-74
2022/05/09 08:00:10;;;;;;;5.20;4.70;;;;;;;17.97;97.86;97338.28;5039103;28;20977;-74
2022/05/09 08:02:40;;;;;;;6.63;4.30;;;;;;;18.00;96.50;97351.72;5050886;28;20431;-74
2022/05/09 08:05:10;;;;;;;5.60;4.67;;;;;;;17.85;95.35;97306.28;5033063;28;20434;-74
2022/05/09 08:07:38;;;;;;;5.23;4.73;;;;;;;18.55;94.35;97346.34;5032884;28;20440;-74
2022/05/09 08:10:06;;;;;;;8.10;5.53;;;;;;;18.43;92.50;97351.84;5049452;28;20449;-74
2022/05/09 08:12:34;;;;;;;9.60;4.80;;;;;;;18.32;91.04;97316.84;5032916;28;20520;-74
2022/05/09 08:15:01;;;;;;;5.23;4.57;;;;;;;18.47;92.52;97334.75;5032917;28;20555;-74
2022/05/09 08:17:34;;;;;;;4.10;3.80;;;;;;;18.19;92.04;97302.03;5017307;28;20548;-74
2022/05/09 08:20:00;;;;;;;6.63;6.00;;;;;;;18.42;93.05;97344.94;5032809;28;20445;-74
2022/05/09 08:22:31;;;;;;;8.70;4.87;;;;;;;18.32;92.35;97330.22;5032918;28;20476;-74
2022/05/09 08:24:58;;;;;;;5.30;4.90;;;;;;;18.53;90.51;97349.41;5032767;28;20537;-74
2022/05/09 08:27:31;;;;;;;8.90;4.43;;;;;;;19.01;88.41;97351.88;5049561;28;20448;-74
2022/05/09 08:29:58;;;;;;;7.13;4.33;;;;;;;18.68;89.82;97321.00;5050785;28;20544;-74
2022/05/09 08:32:28;;;;;;;6.77;5.00;;;;;;;19.06;88.44;97330.13;5032869;28;20450;-74
2022/05/09 08:34:56;;;;;;;5.27;4.70;;;;;;;18.55;87.39;97325.69;5033107;28;20453;-74
2022/05/09 08:37:24;;;;;;;4.80;4.40;;;;;;;18.80;86.27;97336.94;5050700;28;20933;-74
2022/05/09 08:39:51;;;;;;;8.23;4.40;;;;;;;19.05;84.57;97352.69;5033084;28;20932;-74
2022/05/09 08:42:22;;;;;;;4.40;4.00;;;;;;;19.01;84.71;97330.41;5032598;28;20469;-74
2022/05/09 08:45:13;;;;;;;4.77;4.37;;;;;;;19.39;86.45;97346.41;5032748;28;20445;-74
2022/05/09 08:47:58;;;;;;;5.07;4.67;;;;;;;19.28;83.55;97350.81;5047959;28;21022;-74
2022/05/09 08:50:43;;;;;;;4.00;3.70;;;;;;;19.98;83.71;97357.66;5040452;28;20877;-74
2022/05/09 08:53:19;;;;;;;4.20;3.90;;;;;;;19.86;81.61;97355.19;5060289;28;20433;-74
2022/05/09 08:55:46;;;;;;;5.63;4.50;;;;;;;19.91;82.50;97330.72;5041850;28;20490;-74
2022/05/09 08:58:32;;;;;;;5.20;4.47;;;;;;;19.92;77.96;97354.53;5040469;28;20479;-74
2022/05/09 09:01:03;;;;;;;3.93;3.53;;;;;;;20.35;78.18;97347.81;5041936;28;20465;-74
2022/05/09 09:03:33;;;;;;;4.43;4.07;;;;;;;20.32;79.72;97348.56;5060223;28;20433;-74
2022/05/09 09:06:12;;;;;;;4.77;4.37;;;;;;;20.24;77.93;97348.81;5043591;28;20433;-75
2022/05/09 09:08:41;;;;;;;4.00;3.70;;;;;;;20.49;79.95;97351.84;5047279;28;21037;-74
2022/05/09 09:11:47;;;;;;;4.83;4.47;;;;;;;20.36;75.91;97353.97;5043984;28;20472;-75
2022/05/09 09:14:33;;;;;;;5.97;3.83;;;;;;;20.76;73.51;97349.88;5039523;28;20885;-75
2022/05/09 09:17:17;;;;;;;5.63;4.00;;;;;;;20.15;73.52;97359.03;5054307;28;20441;-74
2022/05/09 09:19:53;;;;;;;9.20;4.37;;;;;;;20.69;72.33;97360.53;5074750;28;20464;-74
2022/05/09 09:22:41;;;;;;;5.27;3.70;;;;;;;20.10;71.13;97354.00;5049420;28;20784;-75
2022/05/09 09:25:15;;;;;;;4.27;3.87;;;;;;;20.36;72.72;97333.25;5043933;28;20505;-75
2022/05/09 09:27:53;;;;;;;4.30;3.50;;;;;;;20.30;70.60;97342.78;5051288;28;20441;-74
2022/05/09 09:30:22;;;;;;;7.33;4.10;;;;;;;20.39;71.80;97358.59;5045569;28;20465;-74
2022/05/09 09:33:04;;;;;;;4.20;3.80;;;;;;;19.58;75.39;97350.16;5044301;28;20451;-74
2022/05/09 09:36:05;;;;;;;4.63;4.20;;;;;;;20.28;74.59;97346.94;5064656;28;20479;-74
2022/05/09 09:39:19;;;;;;;4.20;3.90;;;;;;;20.36;71.75;97349.38;5033064;28;20452;-75
2022/05/09 09:41:48;;;;;;;4.50;3.77;;;;;;;20.46;70.77;97350.69;5064555;28;20465;-74
2022/05/09 09:44:19;;;;;;;3.60;3.30;;;;;;;20.78;72.11;97358.31;5055525;28;20445;-74
2022/05/09 09:47:20;;;;;;;4.93;3.77;;;;;;;20.21;69.65;97346.88;5062695;28;20937;-75
2022/05/09 09:50:28;;;;;;;4.80;4.13;;;;;;;20.02;69.74;97335.09;5053857;28;20540;-74
2022/05/09 09:52:58;;;;;;;6.77;4.07;;;;;;;19.81;69.55;97340.19;5024834;28;20526;-74
2022/05/09 09:55:34;;;;;;;4.77;4.23;;;;;;;19.39;71.17;97330.31;5058672;28;20434;-74
2022/05/09 09:58:18;;;;;;;4.00;3.63;;;;;;;19.36;72.06;97339.06;5064027;28;20883;-74
2022/05/09 10:00:45;;;;;;;4.27;3.97;;;;;;;19.04;72.69;97335.06;5055736;28;20457;-75
2022/05/09 10:03:22;;;;;;;3.93;3.53;;;;;;;19.12;74.05;97326.03;5061217;28;20437;-75
2022/05/09 10:05:50;;;;;;;4.07;3.77;;;;;;;19.01;74.27;97331.19;5033988;28;20445;-75
2022/05/09 10:08:26;;;;;;;5.03;3.93;;;;;;;18.73;72.86;97328.78;5056460;28;20448;-75
2022/05/09 10:10:56;;;;;;;4.47;4.07;;;;;;;18.55;74.97;97271.34;5074629;28;20453;-76
2022/05/09 10:13:23;;;;;;;4.73;4.33;;;;;;;19.29;73.79;97306.75;5068268;28;20431;-74
2022/05/09 10:16:11;;;;;;;4.30;4.00;;;;;;;20.33;73.79;97314.41;5061785;28;20418;-74
2022/05/09 10:18:42;;;;;;;3.73;3.43;;;;;;;19.65;70.78;97326.13;5048631;28;20532;-75
2022/05/09 10:24:47;;;;;;;4.63;4.07;;;;;;;19.26;72.16;97323.59;5066998;28;20457;-75
2022/05/09 10:26:55;;;;;;;4.07;3.77;;;;;;;19.22;69.51;97301.28;5047229;28;20531;-75
2022/05/09 10:29:24;;;;;;;5.33;4.20;;;;;;;19.25;68.91;97273.00;5026907;28;20515;-75
2022/05/09 10:31:55;;;;;;;5.43;4.43;;;;;;;19.82;69.24;97319.47;5046389;28;20461;-75
2022/05/09 10:34:55;;;;;;;4.30;4.00;;;;;;;20.17;67.22;97263.56;5052854;28;20467;-75
2022/05/09 10:37:40;;;;;;;4.33;3.93;;;;;;;20.63;65.30;97317.84;5063335;28;20440;-76
2022/05/09 10:40:15;;;;;;;5.57;4.17;;;;;;;20.53;68.41;97313.13;5047748;28;20456;-76
2022/05/09 10:42:53;;;;;;;3.90;3.50;;;;;;;20.46;67.49;97318.44;5065581;28;20759;-76
2022/05/09 10:45:27;;;;;;;4.73;4.23;;;;;;;19.84;68.63;97311.84;5049954;28;20433;-75
2022/05/09 10:48:08;;;;;;;4.30;3.90;;;;;;;19.74;68.90;97307.84;5066395;28;20421;-76
2022/05/09 10:51:11;;;;;;;4.40;3.90;;;;;;;19.92;69.04;97306.22;5027022;28;20461;-75
2022/05/09 10:54:08;;;;;;;4.23;3.73;;;;;;;19.81;68.73;97281.13;5043512;28;20526;-75
2022/05/09 10:56:49;;;;;;;3.80;3.43;;;;;;;20.27;69.21;97303.19;5042452;28;20421;-76
2022/05/09 10:59:24;;;;;;;4.17;3.77;;;;;;;19.66;67.77;97268.66;5041940;28;20461;-76
2022/05/09 11:02:00;;;;;;;4.50;4.00;;;;;;;20.10;69.08;97289.56;5042485;28;20464;-76
2022/05/09 11:04:31;;;;;;;4.03;3.63;;;;;;;20.43;65.24;97294.97;5043487;28;20433;-75
2022/05/09 11:07:20;;;;;;;4.27;3.87;;;;;;;20.52;65.04;97294.69;5047540;28;20487;-76
2022/05/09 11:10:21;;;;;;;4.53;4.13;;;;;;;21.20;64.31;97288.03;5042279;28;20456;-76
2022/05/09 11:13:02;;;;;;;4.77;3.80;;;;;;;20.56;63.20;97288.19;5050724;28;20426;-76
2022/05/09 11:15:45;;;;;;;3.53;3.23;;;;;;;21.07;62.68;97287.56;5026465;28;20441;-76
2022/05/09 11:18:46;;;;;;;3.80;3.50;;;;;;;21.93;60.03;97293.59;5047216;28;20457;-76
2022/05/09 11:21:49;;;;;;;4.87;3.30;;;;;;;22.80;58.24;97291.63;5053858;28;20449;-76
2022/05/09 11:24:30;;;;;;;4.30;3.90;;;;;;;22.05;57.93;97290.56;5073608;28;20394;-75
2022/05/09 11:27:20;;;;;;;4.17;3.77;;;;;;;21.82;57.00;97253.91;5041928;28;20528;-76
2022/05/09 11:30:28;;;;;;;6.63;3.67;;;;;;;21.78;58.53;97226.19;5024738;28;20434;-76
2022/05/09 11:33:35;;;;;;;4.03;3.67;;;;;;;22.28;56.90;97264.13;5060449;28;20429;-75
2022/05/09 11:36:28;;;;;;;3.70;3.40;;;;;;;22.79;55.72;97265.03;5038781;28;20864;-74
2022/05/09 11:39:08;;;;;;;3.87;3.57;;;;;;;22.59;56.10;97259.22;5025713;28;20537;-76
2022/05/09 11:41:44;;;;;;;16.30;14.60;;;;;;;22.51;54.40;97274.59;5039769;28;20461;-75
2022/05/09 11:44:18;;;;;;;6.57;3.93;;;;;;;22.63;52.95;97271.56;5051619;28;20457;-75
2022/05/09 11:47:06;;;;;;;7.97;3.60;;;;;;;22.74;51.16;97270.81;5052472;28;20428;-76
2022/05/09 11:50:08;;;;;;;3.40;3.20;;;;;;;22.95;51.84;97263.53;5048942;28;20445;-75
2022/05/09 11:52:42;;;;;;;7.70;7.20;;;;;;;22.70;51.04;97263.50;4953410;29;20493;-75
2022/05/09 11:55:24;;;;;;;7.70;4.23;;;;;;;23.34;51.48;97224.22;5041546;28;20441;-75
2022/05/09 11:57:58;;;;;;;4.60;4.13;;;;;;;23.43;50.15;97238.88;5052547;28;20418;-75
2022/05/09 12:00:25;;;;;;;3.40;3.20;;;;;;;23.39;49.67;97248.91;5053634;28;20481;-75
2022/05/09 12:03:01;;;;;;;5.17;4.30;;;;;;;23.69;49.23;97248.50;5053709;28;20433;-75
2022/05/09 12:05:29;;;;;;;11.43;7.27;;;;;;;23.40;49.04;97244.28;5053249;28;20441;-75